createdAt,value
2019-05-17T00:01:07.352Z,18.53
2019-05-17T00:03:36.425Z,17.40
2019-05-17T00:06:03.026Z,17.83
2019-05-17T00:08:34.423Z,19.10
2019-05-17T00:10:58.066Z,16.77
2019-05-17T00:13:26.877Z,18.87
2019-05-17T00:15:53.272Z,19.60
2019-05-17T00:18:19.805Z,18.23
2019-05-17T00:20:46.738Z,19.30
2019-05-17T00:23:13.331Z,18.70
2019-05-17T00:25:39.740Z,18.70
2019-05-17T00:28:07.261Z,19.70
2019-05-17T00:30:34.289Z,18.93
2019-05-17T00:33:00.593Z,20.60
2019-05-17T00:35:27.038Z,19.37
2019-05-17T00:37:53.341Z,20.50
2019-05-17T00:40:19.846Z,20.57
2019-05-17T00:42:46.770Z,21.33
2019-05-17T00:45:14.261Z,22.47
2019-05-17T00:47:40.631Z,20.37
2019-05-17T00:50:08.225Z,21.93
2019-05-17T00:52:36.892Z,22.93
2019-05-17T00:55:07.858Z,21.53
2019-05-17T00:57:36.665Z,22.73
2019-05-17T01:00:08.619Z,21.13
2019-05-17T01:02:36.372Z,22.53
2019-05-17T01:05:06.412Z,21.33
2019-05-17T01:07:33.121Z,22.60
2019-05-17T01:09:59.668Z,22.27
2019-05-17T01:12:27.215Z,22.47
2019-05-17T01:14:53.989Z,21.63
2019-05-17T01:17:20.350Z,22.30
2019-05-17T01:19:47.349Z,24.20
2019-05-17T01:22:13.956Z,21.97
2019-05-17T01:24:40.241Z,23.50
2019-05-17T01:27:06.780Z,22.73
2019-05-17T01:29:33.120Z,21.43
2019-05-17T01:31:59.672Z,22.60
2019-05-17T01:34:27.238Z,22.87
2019-05-17T01:36:53.763Z,23.60
2019-05-17T01:39:21.441Z,23.00
2019-05-17T01:41:48.220Z,22.90
2019-05-17T01:44:16.704Z,21.47
2019-05-17T01:46:43.262Z,22.23
2019-05-17T01:49:09.851Z,22.00
2019-05-17T01:51:37.055Z,22.27
2019-05-17T01:54:03.890Z,23.47
2019-05-17T01:56:30.511Z,23.30
2019-05-17T01:58:57.479Z,22.67
2019-05-17T02:01:24.100Z,22.63
2019-05-17T02:03:50.649Z,20.50
2019-05-17T02:06:17.322Z,23.03
2019-05-17T02:08:43.801Z,22.40
2019-05-17T02:11:10.403Z,23.20
2019-05-17T02:13:37.583Z,22.00
2019-05-17T02:16:07.242Z,22.83
2019-05-17T02:18:33.954Z,22.73
2019-05-17T02:21:00.475Z,23.53
2019-05-17T02:23:27.169Z,22.30
2019-05-17T02:25:53.825Z,23.33
2019-05-17T02:28:21.382Z,23.60
2019-05-17T02:30:48.277Z,22.90
2019-05-17T02:33:15.229Z,24.07
2019-05-17T02:35:42.932Z,22.47
2019-05-17T02:38:12.980Z,24.23
2019-05-17T02:40:38.089Z,22.90
2019-05-17T02:43:04.748Z,23.00
2019-05-17T02:45:32.773Z,24.07
2019-05-17T02:48:03.263Z,22.60
2019-05-17T02:50:28.014Z,24.17
2019-05-17T02:52:54.415Z,22.20
2019-05-17T02:55:23.376Z,22.77
2019-05-17T02:57:52.652Z,23.37
2019-05-17T03:00:18.456Z,23.80
2019-05-17T03:02:44.957Z,23.70
2019-05-17T03:05:13.026Z,24.63
2019-05-17T03:07:43.347Z,24.23
2019-05-17T03:10:18.227Z,24.07
2019-05-17T03:12:36.918Z,25.53
2019-05-17T03:15:04.489Z,24.43
2019-05-17T03:17:33.857Z,25.60
2019-05-17T03:19:59.479Z,25.37
2019-05-17T03:22:26.070Z,25.13
2019-05-17T03:24:53.419Z,24.87
2019-05-17T03:27:23.092Z,26.50
2019-05-17T03:29:48.626Z,25.70
2019-05-17T03:32:17.510Z,25.80
2019-05-17T03:34:46.914Z,26.67
2019-05-17T03:37:16.226Z,26.27
2019-05-17T03:39:42.803Z,24.80
2019-05-17T03:42:09.487Z,25.77
2019-05-17T03:44:36.109Z,23.30
2019-05-17T03:47:03.907Z,24.07
2019-05-17T03:49:33.065Z,24.17
2019-05-17T03:51:58.732Z,22.80
2019-05-17T03:54:25.156Z,23.47
2019-05-17T03:56:53.250Z,23.37
2019-05-17T03:59:20.288Z,23.80
2019-05-17T04:01:47.205Z,24.65
2019-05-17T04:04:13.747Z,23.77
2019-05-17T04:06:43.332Z,23.03
2019-05-17T04:09:08.912Z,24.30
2019-05-17T04:11:36.664Z,23.60
2019-05-17T04:14:03.554Z,22.93
2019-05-17T04:16:33.657Z,23.17
2019-05-17T04:18:58.511Z,21.90
2019-05-17T04:21:25.216Z,22.53
2019-05-17T04:23:53.770Z,22.03
2019-05-17T04:26:22.770Z,23.00
2019-05-17T04:28:48.454Z,20.87
2019-05-17T04:31:14.971Z,21.27
2019-05-17T04:33:42.775Z,21.40
2019-05-17T04:36:12.936Z,20.90
2019-05-17T04:38:38.226Z,19.43
2019-05-17T04:41:04.872Z,19.20
2019-05-17T04:43:33.474Z,20.03
2019-05-17T04:46:02.468Z,20.10
2019-05-17T04:48:28.105Z,19.33
2019-05-17T04:50:54.615Z,19.23
2019-05-17T04:53:23.372Z,18.57
2019-05-17T04:55:49.667Z,19.23
2019-05-17T04:58:16.071Z,19.17
2019-05-17T05:00:43.165Z,19.02
2019-05-17T05:03:12.615Z,19.63
2019-05-17T05:05:38.361Z,19.07
2019-05-17T05:08:04.972Z,19.10
2019-05-17T05:10:33.840Z,19.50
2019-05-17T05:13:02.796Z,18.30
2019-05-17T05:15:43.871Z,18.37
2019-05-17T05:18:12.950Z,17.23
2019-05-17T05:20:38.290Z,18.60
2019-05-17T05:23:05.679Z,18.37
2019-05-17T05:25:32.453Z,18.47
2019-05-17T05:27:59.027Z,18.20
2019-05-17T05:30:25.486Z,17.37
2019-05-17T05:32:52.478Z,17.00
2019-05-17T05:35:19.057Z,18.43
2019-05-17T05:37:45.382Z,17.30
2019-05-17T05:40:12.874Z,17.77
2019-05-17T05:42:42.283Z,16.13
2019-05-17T05:45:09.112Z,16.50
2019-05-17T05:47:35.675Z,16.13
2019-05-17T05:50:05.341Z,16.70
2019-05-17T05:52:32.430Z,17.30
2019-05-17T05:55:01.376Z,16.40
2019-05-17T05:57:27.422Z,17.37
2019-05-17T05:59:54.024Z,16.23
2019-05-17T06:02:21.738Z,16.47
2019-05-17T06:04:48.459Z,16.80
2019-05-17T06:07:15.015Z,16.10
2019-05-17T06:09:42.364Z,16.57
2019-05-17T06:12:20.793Z,16.07
2019-05-17T06:14:37.595Z,16.73
2019-05-17T06:17:04.151Z,15.80
2019-05-17T06:19:31.512Z,16.57
2019-05-17T06:21:58.302Z,16.47
2019-05-17T06:24:24.749Z,15.73
2019-05-17T06:26:52.502Z,15.03
2019-05-17T06:29:19.262Z,16.27
2019-05-17T06:31:45.577Z,15.30
2019-05-17T06:34:11.997Z,15.90
2019-05-17T06:36:38.320Z,14.67
2019-05-17T06:39:07.088Z,15.70
2019-05-17T06:41:33.673Z,14.93
2019-05-17T06:44:02.735Z,15.20
2019-05-17T06:46:28.492Z,13.07
2019-05-17T06:48:55.020Z,14.00
2019-05-17T06:51:22.099Z,15.50
2019-05-17T06:53:48.582Z,14.50
2019-05-17T06:56:15.011Z,14.97
2019-05-17T06:58:41.364Z,14.13
2019-05-17T07:01:09.490Z,14.97
2019-05-17T07:03:35.907Z,14.23
2019-05-17T07:06:04.478Z,14.73
2019-05-17T07:08:30.996Z,14.23
2019-05-17T07:10:59.569Z,13.47
2019-05-17T07:13:26.083Z,13.40
2019-05-17T07:15:52.499Z,14.77
2019-05-17T07:18:19.481Z,14.90
2019-05-17T07:20:46.026Z,13.57
2019-05-17T07:23:12.291Z,13.47
2019-05-17T07:25:39.685Z,12.97
2019-05-17T07:28:06.526Z,13.60
2019-05-17T07:30:32.907Z,12.77
2019-05-17T07:33:00.450Z,12.47
2019-05-17T07:35:27.179Z,11.93
2019-05-17T07:37:53.667Z,11.77
2019-05-17T07:40:20.661Z,12.70
2019-05-17T07:42:47.165Z,12.13
2019-05-17T07:45:14.622Z,11.77
2019-05-17T07:47:41.015Z,11.43
2019-05-17T07:50:10.835Z,11.17
2019-05-17T07:52:36.695Z,10.93
2019-05-17T07:55:05.414Z,12.00
2019-05-17T07:57:31.818Z,9.83
2019-05-17T08:00:00.007Z,9.97
2019-05-17T08:02:26.872Z,10.37
2019-05-17T08:04:53.142Z,10.53
2019-05-17T08:07:19.832Z,10.80
2019-05-17T08:09:46.329Z,10.47
2019-05-17T08:12:13.092Z,9.30
2019-05-17T08:14:40.076Z,10.27
2019-05-17T08:17:06.861Z,9.60
2019-05-17T08:19:33.331Z,9.27
2019-05-17T08:21:59.781Z,8.40
2019-05-17T08:24:26.240Z,8.47
2019-05-17T08:26:52.648Z,8.37
2019-05-17T08:29:20.333Z,7.67
2019-05-17T08:31:47.004Z,6.40
2019-05-17T08:34:13.577Z,6.07
2019-05-17T08:36:40.527Z,5.40
2019-05-17T08:39:07.430Z,5.63
2019-05-17T08:41:33.957Z,5.57
2019-05-17T08:44:00.884Z,5.30
2019-05-17T08:46:27.596Z,5.80
2019-05-17T08:48:54.075Z,5.53
2019-05-17T08:51:20.660Z,5.53
2019-05-17T08:53:49.167Z,5.10
2019-05-17T08:56:15.624Z,5.00
2019-05-17T08:58:42.072Z,4.90
2019-05-17T09:01:11.147Z,5.20
2019-05-17T09:03:37.127Z,4.80
2019-05-17T09:06:03.568Z,5.07
2019-05-17T09:08:30.031Z,5.17
2019-05-17T09:10:56.561Z,5.10
2019-05-17T09:13:23.067Z,5.30
2019-05-17T09:15:49.625Z,5.50
2019-05-17T09:18:16.096Z,5.40
2019-05-17T09:20:42.561Z,5.50
2019-05-17T09:23:09.716Z,5.60
2019-05-17T09:25:36.532Z,5.13
2019-05-17T09:28:03.123Z,5.30
2019-05-17T09:30:31.370Z,5.17
2019-05-17T09:33:00.337Z,5.40
2019-05-17T09:35:26.700Z,5.23
2019-05-17T09:37:53.230Z,5.67
2019-05-17T09:40:20.019Z,5.37
2019-05-17T09:42:46.761Z,6.20
2019-05-17T09:45:13.939Z,6.20
2019-05-17T09:47:40.446Z,5.53
2019-05-17T09:50:09.993Z,4.97
2019-05-17T09:52:36.907Z,5.47
2019-05-17T09:55:05.142Z,4.90
2019-05-17T09:57:31.550Z,5.20
2019-05-17T10:00:00.152Z,5.10
2019-05-17T10:02:26.601Z,4.90
2019-05-17T10:04:52.976Z,4.87
2019-05-17T10:07:20.710Z,4.70
2019-05-17T10:09:50.150Z,4.60
2019-05-17T10:12:17.010Z,4.60
2019-05-17T10:14:43.597Z,4.77
2019-05-17T10:17:10.192Z,5.43
2019-05-17T10:19:36.801Z,5.10
2019-05-17T10:22:03.481Z,5.10
2019-05-17T10:24:37.942Z,4.57
2019-05-17T10:26:59.534Z,4.50
2019-05-17T10:29:26.257Z,4.67
2019-05-17T10:31:52.687Z,4.13
2019-05-17T10:34:20.339Z,4.57
2019-05-17T10:36:47.212Z,4.33
2019-05-17T10:39:13.684Z,4.50
2019-05-17T10:41:40.822Z,4.37
2019-05-17T10:44:09.464Z,4.30
2019-05-17T10:46:36.097Z,4.43
2019-05-17T10:49:02.754Z,4.30
2019-05-17T10:51:29.659Z,4.20
2019-05-17T10:53:56.156Z,4.37
2019-05-17T10:56:23.716Z,5.50
2019-05-17T10:58:50.563Z,5.47
2019-05-17T11:01:17.195Z,4.43
2019-05-17T11:03:43.671Z,4.50
2019-05-17T11:06:10.943Z,4.27
2019-05-17T11:08:37.822Z,5.00
2019-05-17T11:11:04.613Z,5.77
2019-05-17T11:13:31.146Z,5.07
2019-05-17T11:15:57.585Z,6.10
2019-05-17T11:18:24.009Z,6.63
2019-05-17T11:20:50.596Z,6.30
2019-05-17T11:23:17.156Z,6.60
2019-05-17T11:25:45.831Z,5.77
2019-05-17T11:28:12.117Z,6.47
2019-05-17T11:30:38.942Z,6.53
2019-05-17T11:33:05.454Z,6.53
2019-05-17T11:35:32.058Z,5.60
2019-05-17T11:37:58.397Z,6.13
2019-05-17T11:40:25.943Z,6.30
2019-05-17T11:42:52.530Z,6.10
2019-05-17T11:45:27.453Z,6.03
2019-05-17T11:47:47.782Z,5.40
2019-05-17T11:50:14.912Z,6.80
2019-05-17T11:52:41.342Z,6.93
2019-05-17T11:55:08.251Z,6.57
2019-05-17T11:57:34.704Z,6.03
2019-05-17T12:00:02.776Z,6.27
2019-05-17T12:02:29.282Z,5.53
2019-05-17T12:04:55.783Z,5.67
2019-05-17T12:07:22.356Z,5.30
2019-05-17T12:09:48.905Z,6.00
2019-05-17T12:12:15.401Z,5.13
2019-05-17T12:14:42.037Z,6.00
2019-05-17T12:17:08.654Z,5.67
2019-05-17T12:19:37.224Z,6.13
2019-05-17T12:22:03.869Z,5.27
2019-05-17T12:24:30.430Z,5.30
2019-05-17T12:26:56.948Z,4.70
2019-05-17T12:29:23.278Z,5.13
2019-05-17T12:31:49.802Z,5.17
2019-05-17T12:34:16.466Z,4.77
2019-05-17T12:36:42.836Z,5.03
2019-05-17T12:39:09.487Z,5.17
2019-05-17T12:41:35.993Z,4.97
2019-05-17T12:44:02.752Z,5.10
2019-05-17T12:46:29.302Z,5.30
2019-05-17T12:48:55.863Z,5.67
2019-05-17T12:51:22.368Z,5.17
2019-05-17T12:53:48.921Z,4.00
2019-05-17T12:56:15.505Z,3.10
2019-05-17T12:58:41.842Z,2.93
2019-05-17T13:01:08.162Z,2.10
2019-05-17T13:03:34.869Z,1.67
2019-05-17T13:06:01.182Z,1.87
2019-05-17T13:08:27.743Z,1.70
2019-05-17T13:10:54.548Z,1.70
2019-05-17T13:13:20.956Z,1.60
2019-05-17T13:15:47.545Z,1.40
2019-05-17T13:18:13.934Z,1.40
2019-05-17T13:20:40.616Z,1.60
2019-05-17T13:23:07.176Z,1.57
2019-05-17T13:25:33.546Z,1.63
2019-05-17T13:28:00.292Z,1.60
2019-05-17T13:30:26.918Z,1.57
2019-05-17T13:32:53.488Z,1.37
2019-05-17T13:35:20.157Z,1.67
2019-05-17T13:37:46.691Z,1.73
2019-05-17T13:40:13.667Z,1.50
2019-05-17T13:42:40.273Z,1.43
2019-05-17T13:45:07.729Z,1.30
2019-05-17T13:47:34.465Z,1.47
2019-05-17T13:50:01.181Z,1.50
2019-05-17T13:52:27.872Z,1.80
2019-05-17T13:54:54.327Z,1.80
2019-05-17T13:57:20.669Z,1.20
2019-05-17T13:59:47.105Z,1.60
2019-05-17T14:02:13.776Z,1.53
2019-05-17T14:04:40.268Z,1.40
2019-05-17T14:07:07.036Z,1.40
2019-05-17T14:09:33.672Z,1.90
2019-05-17T14:12:00.233Z,1.87
2019-05-17T14:14:26.833Z,1.80
2019-05-17T14:16:53.511Z,1.87
2019-05-17T14:19:20.089Z,1.80
2019-05-17T14:21:46.818Z,1.90
2019-05-17T14:24:13.469Z,1.90
2019-05-17T14:26:39.952Z,1.80
2019-05-17T14:29:06.628Z,2.00
2019-05-17T14:31:33.349Z,2.27
2019-05-17T14:34:00.193Z,2.43
2019-05-17T14:36:26.952Z,2.50
2019-05-17T14:38:53.277Z,2.40
2019-05-17T14:41:20.066Z,2.17
2019-05-17T14:43:46.820Z,2.30
2019-05-17T14:46:13.570Z,2.80
2019-05-17T14:48:40.117Z,2.73
2019-05-17T14:51:06.819Z,3.00
2019-05-17T14:53:33.646Z,2.63
2019-05-17T14:56:00.353Z,3.17
2019-05-17T14:58:27.016Z,3.23
2019-05-17T15:00:54.044Z,3.43
2019-05-17T15:03:20.917Z,3.70
2019-05-17T15:05:47.542Z,3.90
2019-05-17T15:08:14.487Z,3.83
2019-05-17T15:10:41.111Z,2.90
2019-05-17T15:13:07.743Z,3.87
2019-05-17T15:15:34.419Z,4.23
2019-05-17T15:18:01.293Z,3.80
2019-05-17T15:20:28.024Z,3.80
2019-05-17T15:22:54.770Z,3.87
2019-05-17T15:25:21.596Z,3.70
2019-05-17T15:27:48.237Z,4.00
2019-05-17T15:30:15.381Z,4.40
2019-05-17T15:32:42.256Z,3.80
2019-05-17T15:35:18.806Z,4.37
2019-05-17T15:37:45.688Z,4.70
2019-05-17T15:40:12.477Z,4.77
2019-05-17T15:42:44.047Z,4.77
2019-05-17T15:45:07.886Z,3.67
2019-05-17T15:47:34.555Z,4.87
2019-05-17T15:50:01.444Z,4.60
2019-05-17T15:52:28.143Z,5.13
2019-05-17T15:54:54.787Z,4.70
2019-05-17T15:57:21.509Z,4.13
2019-05-17T15:59:48.293Z,4.37
2019-05-17T16:02:14.917Z,4.67
2019-05-17T16:04:41.518Z,4.73
2019-05-17T16:07:08.250Z,4.83
2019-05-17T16:09:35.009Z,4.50
2019-05-17T16:12:01.783Z,5.27
2019-05-17T16:14:28.633Z,4.43
2019-05-17T16:16:55.156Z,4.47
2019-05-17T16:19:21.858Z,4.30
2019-05-17T16:21:48.688Z,4.40
2019-05-17T16:24:15.289Z,4.50
2019-05-17T16:26:41.874Z,4.20
2019-05-17T16:29:08.611Z,5.03
2019-05-17T16:31:35.326Z,4.03
2019-05-17T16:34:02.076Z,4.77
2019-05-17T16:36:28.798Z,4.70
2019-05-17T16:38:55.503Z,4.37
2019-05-17T16:41:22.319Z,4.93
2019-05-17T16:43:48.943Z,5.67
2019-05-17T16:46:15.681Z,5.83
2019-05-17T16:48:42.244Z,6.07
2019-05-17T16:51:08.848Z,6.23
2019-05-17T16:53:35.280Z,5.93
2019-05-17T16:56:02.162Z,6.07
2019-05-17T16:58:28.755Z,5.53
2019-05-17T17:00:56.094Z,5.47
2019-05-17T17:03:22.849Z,5.47
2019-05-17T17:05:49.447Z,5.53
2019-05-17T17:08:15.968Z,5.30
2019-05-17T17:10:42.672Z,5.00
2019-05-17T17:13:09.291Z,4.57
2019-05-17T17:15:35.986Z,5.13
2019-05-17T17:18:03.574Z,4.90
2019-05-17T17:20:30.459Z,4.73
2019-05-17T17:22:57.063Z,4.70
2019-05-17T17:25:23.846Z,5.47
2019-05-17T17:27:50.594Z,5.40
2019-05-17T17:30:17.976Z,4.60
2019-05-17T17:32:44.683Z,5.50
2019-05-17T17:35:11.778Z,4.70
2019-05-17T17:37:38.458Z,4.80
2019-05-17T17:40:06.037Z,4.13
2019-05-17T17:42:32.689Z,4.90
2019-05-17T17:44:59.298Z,4.90
2019-05-17T17:47:25.849Z,5.43
2019-05-17T17:49:52.500Z,5.27
2019-05-17T17:52:19.032Z,4.97
2019-05-17T17:54:45.654Z,4.60
2019-05-17T17:57:12.402Z,4.60
2019-05-17T17:59:38.950Z,4.37
2019-05-17T18:02:05.815Z,5.10
2019-05-17T18:04:32.504Z,4.70
2019-05-17T18:06:59.131Z,5.10
2019-05-17T18:09:25.494Z,5.30
2019-05-17T18:11:52.306Z,4.87
2019-05-17T18:14:19.010Z,5.03
2019-05-17T18:16:45.649Z,4.97
2019-05-17T18:19:12.492Z,4.90
2019-05-17T18:21:39.169Z,5.10
2019-05-17T18:24:06.033Z,4.60
2019-05-17T18:26:32.680Z,5.10
2019-05-17T18:28:59.325Z,5.03
2019-05-17T18:31:25.910Z,5.03
2019-05-17T18:33:52.499Z,4.53
2019-05-17T18:36:19.304Z,4.77
2019-05-17T18:38:50.945Z,4.33
2019-05-17T18:41:17.560Z,4.40
2019-05-17T18:43:44.087Z,4.40
2019-05-17T18:46:10.584Z,4.67
2019-05-17T18:48:37.175Z,5.00
2019-05-17T18:51:03.881Z,4.97
2019-05-17T18:53:30.380Z,5.80
2019-05-17T18:55:56.974Z,5.87
2019-05-17T18:58:24.200Z,6.23
2019-05-17T19:00:50.760Z,5.00
2019-05-17T19:03:17.428Z,5.63
2019-05-17T19:05:45.382Z,5.57
2019-05-17T19:08:12.253Z,6.17
2019-05-17T19:10:38.915Z,6.27
2019-05-17T19:13:05.591Z,6.23
2019-05-17T19:15:32.302Z,6.00
2019-05-17T19:17:58.955Z,6.10
2019-05-17T19:20:25.608Z,5.97
2019-05-17T19:22:52.252Z,6.83
2019-05-17T19:25:19.111Z,6.10
2019-05-17T19:27:46.104Z,6.30
2019-05-17T19:30:13.739Z,6.40
2019-05-17T19:32:40.523Z,6.60
2019-05-17T19:35:07.195Z,6.50
2019-05-17T19:37:33.959Z,6.30
2019-05-17T19:40:00.949Z,6.20
2019-05-17T19:42:27.500Z,6.67
2019-05-17T19:44:59.079Z,7.13
2019-05-17T19:47:22.717Z,6.40
2019-05-17T19:49:49.632Z,6.20
2019-05-17T19:52:16.240Z,6.70
2019-05-17T19:54:43.009Z,7.50
2019-05-17T19:57:09.846Z,6.57
2019-05-17T19:59:36.459Z,6.67
2019-05-17T20:02:06.401Z,7.07
2019-05-17T20:04:31.692Z,6.50
2019-05-17T20:06:58.493Z,7.27
2019-05-17T20:09:25.223Z,6.63
2019-05-17T20:11:51.943Z,6.70
2019-05-17T20:14:18.663Z,6.33
2019-05-17T20:16:45.368Z,6.30
2019-05-17T20:19:12.018Z,6.10
2019-05-17T20:21:38.421Z,6.63
2019-05-17T20:24:05.054Z,6.80
2019-05-17T20:26:31.732Z,6.27
2019-05-17T20:28:58.304Z,6.50
2019-05-17T20:31:24.885Z,6.72
2019-05-17T20:33:51.415Z,6.43
2019-05-17T20:36:18.134Z,7.57
2019-05-17T20:38:44.952Z,7.53
2019-05-17T20:41:11.635Z,6.70
2019-05-17T20:43:38.278Z,6.50
2019-05-17T20:46:05.055Z,6.07
2019-05-17T20:48:31.705Z,6.80
2019-05-17T20:50:58.449Z,6.50
2019-05-17T20:53:25.288Z,6.27
2019-05-17T20:55:51.808Z,6.43
2019-05-17T20:58:18.295Z,6.87
2019-05-17T21:00:44.825Z,7.33
2019-05-17T21:03:13.878Z,6.40
2019-05-17T21:05:40.171Z,7.27
2019-05-17T21:08:13.403Z,7.57
2019-05-17T21:10:40.015Z,8.03
2019-05-17T21:13:06.695Z,7.50
2019-05-17T21:15:46.750Z,7.37
2019-05-17T21:18:02.140Z,7.57
2019-05-17T21:20:28.782Z,8.30
2019-05-17T21:22:55.447Z,7.70
2019-05-17T21:25:21.994Z,7.53
2019-05-17T21:27:48.711Z,7.83
2019-05-17T21:30:15.808Z,7.97
2019-05-17T21:32:42.559Z,7.83
2019-05-17T21:35:09.472Z,8.30
2019-05-17T21:37:35.967Z,8.30
2019-05-17T21:40:08.091Z,10.30
2019-05-17T21:42:34.698Z,8.97
2019-05-17T21:45:01.656Z,9.73
2019-05-17T21:47:28.604Z,9.70
2019-05-17T21:49:55.124Z,10.17
2019-05-17T21:52:21.556Z,9.93
2019-05-17T21:54:48.249Z,9.90
2019-05-17T21:57:14.821Z,10.67
2019-05-17T21:59:41.323Z,9.93
2019-05-17T22:02:08.073Z,10.43
2019-05-17T22:04:34.719Z,9.43
2019-05-17T22:07:01.324Z,10.80
2019-05-17T22:09:28.195Z,9.90
2019-05-17T22:11:58.329Z,10.20
2019-05-17T22:14:25.031Z,10.83
2019-05-17T22:16:51.740Z,10.57
2019-05-17T22:19:18.290Z,10.20
2019-05-17T22:21:44.830Z,10.57
2019-05-17T22:24:11.305Z,11.33
2019-05-17T22:26:37.875Z,9.93
2019-05-17T22:29:04.451Z,10.10
2019-05-17T22:31:31.000Z,11.47
2019-05-17T22:33:57.412Z,10.77
2019-05-17T22:36:24.035Z,9.57
2019-05-17T22:38:50.555Z,9.80
2019-05-17T22:41:17.281Z,10.83
2019-05-17T22:43:43.715Z,11.97
2019-05-17T22:46:10.267Z,9.67
2019-05-17T22:48:37.141Z,10.27
2019-05-17T22:51:03.847Z,10.40
2019-05-17T22:53:30.333Z,9.83
2019-05-17T22:55:56.862Z,10.07
2019-05-17T22:58:23.341Z,11.20
2019-05-17T23:00:49.829Z,10.13
2019-05-17T23:03:16.593Z,9.57
2019-05-17T23:05:43.102Z,12.27
2019-05-17T23:08:09.536Z,10.87
2019-05-17T23:10:36.009Z,11.70
2019-05-17T23:13:02.607Z,10.60
2019-05-17T23:15:31.032Z,9.60
2019-05-17T23:17:57.506Z,9.97
2019-05-17T23:20:24.038Z,10.90
2019-05-17T23:22:50.492Z,10.90
2019-05-17T23:25:16.924Z,9.97
2019-05-17T23:27:43.249Z,10.40
2019-05-17T23:30:10.160Z,9.87
2019-05-17T23:32:36.823Z,10.30
2019-05-17T23:35:05.194Z,8.77
2019-05-17T23:37:31.750Z,10.53
2019-05-17T23:39:58.366Z,9.53
2019-05-17T23:42:24.665Z,9.43
2019-05-17T23:44:51.208Z,9.17
2019-05-17T23:47:17.917Z,8.83
2019-05-17T23:49:44.332Z,9.70
2019-05-17T23:52:10.963Z,8.83
2019-05-17T23:54:37.293Z,9.60
2019-05-17T23:57:03.911Z,8.00
2019-05-17T23:59:30.315Z,9.70
